sensor_id;sensor_type;location;lat;lon;timestamp;pressure;altitude;pressure_sealevel;temperature;humidity
76374;BME280;65197;50.164;8.012;2022-12-29T00:01:36;94749.72;;;7.02;89.92
76374;BME280;65197;50.164;8.012;2022-12-29T00:04:02;94729.00;;;6.94;90.60
76374;BME280;65197;50.164;8.012;2022-12-29T00:06:27;94740.16;;;6.90;91.38
76374;BME280;65197;50.164;8.012;2022-12-29T00:08:53;94744.47;;;6.88;92.56
76374;BME280;65197;50.164;8.012;2022-12-29T00:11:24;94741.63;;;6.77;94.37
76374;BME280;65197;50.164;8.012;2022-12-29T00:13:50;94730.53;;;6.60;95.25
76374;BME280;65197;50.164;8.012;2022-12-29T00:16:35;94749.16;;;6.59;96.35
76374;BME280;65197;50.164;8.012;2022-12-29T00:19:01;94742.59;;;6.55;96.02
76374;BME280;65197;50.164;8.012;2022-12-29T00:21:27;94756.94;;;6.56;96.26
76374;BME280;65197;50.164;8.012;2022-12-29T00:24:21;94742.28;;;6.44;96.88
76374;BME280;65197;50.164;8.012;2022-12-29T00:27:10;94752.31;;;6.46;97.03
76374;BME280;65197;50.164;8.012;2022-12-29T00:29:54;94744.81;;;6.44;97.25
76374;BME280;65197;50.164;8.012;2022-12-29T00:32:38;94745.50;;;6.48;96.55
76374;BME280;65197;50.164;8.012;2022-12-29T00:35:47;94745.50;;;6.48;96.61
76374;BME280;65197;50.164;8.012;2022-12-29T00:38:20;94743.16;;;6.43;97.20
76374;BME280;65197;50.164;8.012;2022-12-29T00:41:05;94746.63;;;6.41;98.25
76374;BME280;65197;50.164;8.012;2022-12-29T00:43:49;94739.25;;;6.36;98.54
76374;BME280;65197;50.164;8.012;2022-12-29T00:46:30;94739.25;;;6.36;98.79
76374;BME280;65197;50.164;8.012;2022-12-29T00:48:56;94738.50;;;6.34;99.08
76374;BME280;65197;50.164;8.012;2022-12-29T00:51:40;94732.84;;;6.29;99.50
76374;BME280;65197;50.164;8.012;2022-12-29T00:54:05;94717.88;;;6.23;98.95
76374;BME280;65197;50.164;8.012;2022-12-29T00:56:30;94722.69;;;6.29;99.46
76374;BME280;65197;50.164;8.012;2022-12-29T00:59:00;94727.06;;;6.25;99.43
76374;BME280;65197;50.164;8.012;2022-12-29T01:01:28;94722.06;;;6.24;100.00
76374;BME280;65197;50.164;8.012;2022-12-29T01:03:54;94705.22;;;6.23;100.00
76374;BME280;65197;50.164;8.012;2022-12-29T01:06:19;94708.66;;;6.22;99.73
76374;BME280;65197;50.164;8.012;2022-12-29T01:08:45;94711.28;;;6.20;99.07
76374;BME280;65197;50.164;8.012;2022-12-29T01:11:12;94715.22;;;6.26;99.95
76374;BME280;65197;50.164;8.012;2022-12-29T01:13:38;94727.81;;;6.27;100.00
76374;BME280;65197;50.164;8.012;2022-12-29T01:16:08;94707.97;;;6.18;100.00
76374;BME280;65197;50.164;8.012;2022-12-29T01:18:34;94705.22;;;6.23;100.00
76374;BME280;65197;50.164;8.012;2022-12-29T01:21:01;94718.78;;;6.22;100.00
76374;BME280;65197;50.164;8.012;2022-12-29T01:23:30;94705.38;;;6.20;100.00
76374;BME280;65197;50.164;8.012;2022-12-29T01:25:55;94723.84;;;6.22;100.00
76374;BME280;65197;50.164;8.012;2022-12-29T01:28:21;94716.34;;;6.20;100.00
76374;BME280;65197;50.164;8.012;2022-12-29T01:30:46;94702.09;;;6.18;100.00
76374;BME280;65197;50.164;8.012;2022-12-29T01:33:12;94715.50;;;6.20;100.00
76374;BME280;65197;50.164;8.012;2022-12-29T01:35:37;94707.72;;;6.24;100.00
76374;BME280;65197;50.164;8.012;2022-12-29T01:38:02;94706.22;;;6.20;100.00
76374;BME280;65197;50.164;8.012;2022-12-29T01:40:28;94706.13;;;6.22;100.00
76374;BME280;65197;50.164;8.012;2022-12-29T01:42:53;94713.81;;;6.20;100.00
76374;BME280;65197;50.164;8.012;2022-12-29T01:45:19;94715.44;;;6.21;100.00
76374;BME280;65197;50.164;8.012;2022-12-29T01:47:48;94713.72;;;6.22;100.00
76374;BME280;65197;50.164;8.012;2022-12-29T01:50:19;94707.16;;;6.18;100.00
76374;BME280;65197;50.164;8.012;2022-12-29T01:53:13;94703.72;;;6.19;100.00
76374;BME280;65197;50.164;8.012;2022-12-29T01:55:48;94702.97;;;6.17;100.00
76374;BME280;65197;50.164;8.012;2022-12-29T01:58:16;94705.50;;;6.17;100.00
76374;BME280;65197;50.164;8.012;2022-12-29T02:00:42;94701.34;;;6.16;100.00
76374;BME280;65197;50.164;8.012;2022-12-29T02:03:08;94702.22;;;6.15;100.00
76374;BME280;65197;50.164;8.012;2022-12-29T02:05:49;94698.81;;;6.16;100.00
76374;BME280;65197;50.164;8.012;2022-12-29T02:08:17;94700.72;;;6.10;100.00
76374;BME280;65197;50.164;8.012;2022-12-29T02:10:44;94688.19;;;6.07;100.00
76374;BME280;65197;50.164;8.012;2022-12-29T02:13:10;94689.72;;;6.11;100.00
76374;BME280;65197;50.164;8.012;2022-12-29T02:16:09;94689.84;;;6.08;100.00
76374;BME280;65197;50.164;8.012;2022-12-29T02:21:56;94680.88;;;6.01;100.00
76374;BME280;65197;50.164;8.012;2022-12-29T02:24:43;94673.41;;;5.98;100.00
76374;BME280;65197;50.164;8.012;2022-12-29T02:27:25;94674.97;;;6.01;100.00
76374;BME280;65197;50.164;8.012;2022-12-29T02:35:08;94665.81;;;5.98;100.00
76374;BME280;65197;50.164;8.012;2022-12-29T02:40:43;94655.84;;;5.95;100.00
76374;BME280;65197;50.164;8.012;2022-12-29T02:43:33;94658.84;;;6.03;100.00
76374;BME280;65197;50.164;8.012;2022-12-29T02:46:21;94663.09;;;6.03;100.00
76374;BME280;65197;50.164;8.012;2022-12-29T02:52:17;94660.47;;;6.04;100.00
76374;BME280;65197;50.164;8.012;2022-12-29T02:54:18;94651.88;;;6.08;100.00
76374;BME280;65197;50.164;8.012;2022-12-29T02:57:03;94645.47;;;6.01;100.00
76374;BME280;65197;50.164;8.012;2022-12-29T02:59:30;94640.13;;;6.07;100.00
76374;BME280;65197;50.164;8.012;2022-12-29T03:05:14;94636.06;;;6.03;100.00
76374;BME280;65197;50.164;8.012;2022-12-29T03:07:58;94642.50;;;6.10;100.00
76374;BME280;65197;50.164;8.012;2022-12-29T03:16:24;94638.94;;;6.15;100.00
76374;BME280;65197;50.164;8.012;2022-12-29T03:21:57;94635.59;;;6.14;100.00
76374;BME280;65197;50.164;8.012;2022-12-29T03:24:45;94627.78;;;6.19;100.00
76374;BME280;65197;50.164;8.012;2022-12-29T03:27:15;94622.88;;;6.16;100.00
76374;BME280;65197;50.164;8.012;2022-12-29T03:29:42;94621.09;;;6.18;100.00
76374;BME280;65197;50.164;8.012;2022-12-29T03:32:12;94637.16;;;6.17;100.00
76374;BME280;65197;50.164;8.012;2022-12-29T03:34:39;94622.72;;;6.19;100.00
76374;BME280;65197;50.164;8.012;2022-12-29T03:37:09;94617.53;;;6.22;100.00
76374;BME280;65197;50.164;8.012;2022-12-29T03:39:36;94609.19;;;6.20;100.00
76374;BME280;65197;50.164;8.012;2022-12-29T03:42:05;94617.41;;;6.25;100.00
76374;BME280;65197;50.164;8.012;2022-12-29T03:44:39;94615.00;;;6.22;100.00
76374;BME280;65197;50.164;8.012;2022-12-29T03:47:06;94619.03;;;6.26;100.00
76374;BME280;65197;50.164;8.012;2022-12-29T03:49:32;94592.13;;;6.23;100.00
76374;BME280;65197;50.164;8.012;2022-12-29T03:51:58;94585.50;;;6.21;100.00
76374;BME280;65197;50.164;8.012;2022-12-29T03:54:23;94603.84;;;6.26;100.00
76374;BME280;65197;50.164;8.012;2022-12-29T03:56:49;94600.41;;;6.27;100.00
76374;BME280;65197;50.164;8.012;2022-12-29T03:59:14;94606.16;;;6.30;100.00
76374;BME280;65197;50.164;8.012;2022-12-29T04:01:40;94598.47;;;6.32;100.00
76374;BME280;65197;50.164;8.012;2022-12-29T04:04:05;94596.97;;;6.28;100.00
76374;BME280;65197;50.164;8.012;2022-12-29T04:06:30;94587.97;;;6.22;100.00
76374;BME280;65197;50.164;8.012;2022-12-29T04:08:56;94607.09;;;6.28;100.00
76374;BME280;65197;50.164;8.012;2022-12-29T04:11:21;94593.63;;;6.27;100.00
76374;BME280;65197;50.164;8.012;2022-12-29T04:13:47;94594.22;;;6.32;100.00
76374;BME280;65197;50.164;8.012;2022-12-29T04:16:12;94616.81;;;6.37;100.00
76374;BME280;65197;50.164;8.012;2022-12-29T04:18:38;94605.03;;;6.36;100.00
76374;BME280;65197;50.164;8.012;2022-12-29T04:21:03;94599.09;;;6.37;100.00
76374;BME280;65197;50.164;8.012;2022-12-29T04:23:30;94607.78;;;6.31;100.00
76374;BME280;65197;50.164;8.012;2022-12-29T04:25:57;94618.59;;;6.35;100.00
76374;BME280;65197;50.164;8.012;2022-12-29T04:28:22;94602.03;;;6.28;100.00
76374;BME280;65197;50.164;8.012;2022-12-29T04:30:48;94618.72;;;6.32;100.00
76374;BME280;65197;50.164;8.012;2022-12-29T04:33:13;94608.78;;;6.29;100.00
76374;BME280;65197;50.164;8.012;2022-12-29T04:35:39;94605.34;;;6.30;100.00
76374;BME280;65197;50.164;8.012;2022-12-29T04:38:04;94608.59;;;6.32;100.00
76374;BME280;65197;50.164;8.012;2022-12-29T04:40:30;94602.03;;;6.28;100.00
76374;BME280;65197;50.164;8.012;2022-12-29T04:42:55;94594.41;;;6.29;100.00
76374;BME280;65197;50.164;8.012;2022-12-29T04:45:21;94606.16;;;6.30;100.00
76374;BME280;65197;50.164;8.012;2022-12-29T04:47:46;94596.84;;;6.31;100.00
76374;BME280;65197;50.164;8.012;2022-12-29T04:50:12;94586.72;;;6.31;100.00
76374;BME280;65197;50.164;8.012;2022-12-29T04:52:37;94594.91;;;6.36;100.00
76374;BME280;65197;50.164;8.012;2022-12-29T04:55:03;94586.63;;;6.32;100.00
76374;BME280;65197;50.164;8.012;2022-12-29T04:57:29;94588.34;;;6.32;100.00
76374;BME280;65197;50.164;8.012;2022-12-29T04:59:54;94582.25;;;6.36;100.00
76374;BME280;65197;50.164;8.012;2022-12-29T05:02:19;94605.03;;;6.36;100.00
76374;BME280;65197;50.164;8.012;2022-12-29T05:04:45;94601.78;;;6.34;100.00
76374;BME280;65197;50.164;8.012;2022-12-29T05:07:11;94611.91;;;6.34;100.00
76374;BME280;65197;50.164;8.012;2022-12-29T05:09:36;94589.13;;;6.34;99.78
76374;BME280;65197;50.164;8.012;2022-12-29T05:12:02;94594.09;;;6.35;100.00
76374;BME280;65197;50.164;8.012;2022-12-29T05:14:27;94598.47;;;6.32;100.00
76374;BME280;65197;50.164;8.012;2022-12-29T05:16:52;94596.25;;;6.26;100.00
76374;BME280;65197;50.164;8.012;2022-12-29T05:19:18;94592.34;;;6.19;100.00
76374;BME280;65197;50.164;8.012;2022-12-29T05:21:43;94592.06;;;6.25;100.00
76374;BME280;65197;50.164;8.012;2022-12-29T05:24:09;94597.13;;;6.25;100.00
76374;BME280;65197;50.164;8.012;2022-12-29T05:26:34;94589.75;;;6.20;100.00
76374;BME280;65197;50.164;8.012;2022-12-29T05:28:59;94595.47;;;6.24;100.00
76374;BME280;65197;50.164;8.012;2022-12-29T05:31:25;94605.75;;;6.21;100.00
76374;BME280;65197;50.164;8.012;2022-12-29T05:33:51;94584.97;;;6.14;100.00
76374;BME280;65197;50.164;8.012;2022-12-29T05:36:16;94584.91;;;6.16;100.00
76374;BME280;65197;50.164;8.012;2022-12-29T05:38:42;94593.84;;;6.23;100.00
76374;BME280;65197;50.164;8.012;2022-12-29T05:41:07;94585.66;;;6.18;100.00
76374;BME280;65197;50.164;8.012;2022-12-29T05:43:32;94596.59;;;6.18;100.00
76374;BME280;65197;50.164;8.012;2022-12-29T05:45:58;94583.78;;;6.21;100.00
76374;BME280;65197;50.164;8.012;2022-12-29T05:48:23;94583.72;;;6.23;100.00
76374;BME280;65197;50.164;8.012;2022-12-29T05:50:49;94588.50;;;6.29;100.00
76374;BME280;65197;50.164;8.012;2022-12-29T05:53:15;94587.66;;;6.28;100.00
76374;BME280;65197;50.164;8.012;2022-12-29T05:55:40;94593.84;;;6.23;100.00
76374;BME280;65197;50.164;8.012;2022-12-29T05:58:05;94599.47;;;6.29;100.00
76374;BME280;65197;50.164;8.012;2022-12-29T06:00:31;94596.84;;;6.31;100.00
76374;BME280;65197;50.164;8.012;2022-12-29T06:02:56;94612.78;;;6.33;100.00
76374;BME280;65197;50.164;8.012;2022-12-29T06:05:22;94599.47;;;6.29;100.00
76374;BME280;65197;50.164;8.012;2022-12-29T06:07:47;94604.31;;;6.34;100.00
76374;BME280;65197;50.164;8.012;2022-12-29T06:10:13;94591.66;;;6.34;100.00
76374;BME280;65197;50.164;8.012;2022-12-29T06:12:38;94596.03;;;6.30;100.00
76374;BME280;65197;50.164;8.012;2022-12-29T06:15:04;94605.13;;;6.34;100.00
76374;BME280;65197;50.164;8.012;2022-12-29T06:17:29;94594.09;;;6.35;100.00
76374;BME280;65197;50.164;8.012;2022-12-29T06:19:55;94585.81;;;6.32;100.00
76374;BME280;65197;50.164;8.012;2022-12-29T06:22:20;94594.03;;;6.37;100.00
76374;BME280;65197;50.164;8.012;2022-12-29T06:24:46;94590.66;;;6.36;100.00
76374;BME280;65197;50.164;8.012;2022-12-29T06:27:11;94597.22;;;6.41;100.00
76374;BME280;65197;50.164;8.012;2022-12-29T06:29:36;94597.38;;;6.37;100.00
76374;BME280;65197;50.164;8.012;2022-12-29T06:32:03;94589.84;;;6.36;100.00
76374;BME280;65197;50.164;8.012;2022-12-29T06:34:28;94603.28;;;6.38;100.00
76374;BME280;65197;50.164;8.012;2022-12-29T06:36:54;94601.63;;;6.37;100.00
76374;BME280;65197;50.164;8.012;2022-12-29T06:39:19;94603.41;;;6.35;100.00
76374;BME280;65197;50.164;8.012;2022-12-29T06:41:45;94586.59;;;6.34;100.00
76374;BME280;65197;50.164;8.012;2022-12-29T06:44:10;94590.75;;;6.35;100.00
76374;BME280;65197;50.164;8.012;2022-12-29T06:46:35;94583.88;;;6.20;100.00
76374;BME280;65197;50.164;8.012;2022-12-29T06:49:01;94597.75;;;6.30;100.00
76374;BME280;65197;50.164;8.012;2022-12-29T06:51:26;94595.22;;;6.30;100.00
76374;BME280;65197;50.164;8.012;2022-12-29T06:53:51;94600.41;;;6.27;100.00
76374;BME280;65197;50.164;8.012;2022-12-29T06:56:17;94592.06;;;6.25;100.00
76374;BME280;65197;50.164;8.012;2022-12-29T06:58:42;94598.66;;;6.29;100.00
76374;BME280;65197;50.164;8.012;2022-12-29T07:01:07;94605.34;;;6.30;100.00
76374;BME280;65197;50.164;8.012;2022-12-29T07:03:33;94606.16;;;6.30;100.00
76374;BME280;65197;50.164;8.012;2022-12-29T07:05:58;94604.66;;;6.26;100.00
76374;BME280;65197;50.164;8.012;2022-12-29T07:08:24;94588.78;;;6.23;100.00
76374;BME280;65197;50.164;8.012;2022-12-29T07:10:49;94593.56;;;6.29;100.00
76374;BME280;65197;50.164;8.012;2022-12-29T07:13:14;94602.94;;;6.27;100.00
76374;BME280;65197;50.164;8.012;2022-12-29T07:15:40;94607.09;;;6.28;100.00
76374;BME280;65197;50.164;8.012;2022-12-29T07:18:05;94607.78;;;6.31;100.00
76374;BME280;65197;50.164;8.012;2022-12-29T07:20:31;94612.03;;;6.31;100.00
76374;BME280;65197;50.164;8.012;2022-12-29T07:22:56;94606.97;;;6.31;100.00
76374;BME280;65197;50.164;8.012;2022-12-29T07:25:22;94617.91;;;6.31;100.00
76374;BME280;65197;50.164;8.012;2022-12-29T07:27:47;94609.03;;;6.23;100.00
76374;BME280;65197;50.164;8.012;2022-12-29T07:30:13;94611.31;;;6.29;100.00
76374;BME280;65197;50.164;8.012;2022-12-29T07:32:39;94624.78;;;6.29;100.00
76374;BME280;65197;50.164;8.012;2022-12-29T07:35:05;94621.47;;;6.27;100.00
76374;BME280;65197;50.164;8.012;2022-12-29T07:37:31;94635.03;;;6.26;100.00
76374;BME280;65197;50.164;8.012;2022-12-29T07:39:56;94628.13;;;6.30;100.00
76374;BME280;65197;50.164;8.012;2022-12-29T07:42:22;94627.09;;;6.34;100.00
76374;BME280;65197;50.164;8.012;2022-12-29T07:44:47;94624.09;;;6.26;100.00
76374;BME280;65197;50.164;8.012;2022-12-29T07:47:12;94641.47;;;6.33;100.00
76374;BME280;65197;50.164;8.012;2022-12-29T07:49:38;94619.34;;;6.37;100.00
76374;BME280;65197;50.164;8.012;2022-12-29T07:52:03;94620.25;;;6.36;99.89
76374;BME280;65197;50.164;8.012;2022-12-29T07:54:29;94621.88;;;6.37;99.53
76374;BME280;65197;50.164;8.012;2022-12-29T07:56:54;94648.69;;;6.41;99.34
76374;BME280;65197;50.164;8.012;2022-12-29T07:59:19;94640.38;;;6.39;99.71
76374;BME280;65197;50.164;8.012;2022-12-29T08:01:45;94625.31;;;6.36;99.55
76374;BME280;65197;50.164;8.012;2022-12-29T08:04:10;94623.53;;;6.38;99.49
76374;BME280;65197;50.164;8.012;2022-12-29T08:06:36;94643.63;;;6.41;99.38
76374;BME280;65197;50.164;8.012;2022-12-29T08:09:03;94626.81;;;6.40;98.97
76374;BME280;65197;50.164;8.012;2022-12-29T08:11:28;94630.84;;;6.44;99.16
76374;BME280;65197;50.164;8.012;2022-12-29T08:13:53;94633.97;;;6.49;98.27
76374;BME280;65197;50.164;8.012;2022-12-29T08:16:19;94629.81;;;6.48;98.55
76374;BME280;65197;50.164;8.012;2022-12-29T08:18:44;94643.41;;;6.46;98.33
76374;BME280;65197;50.164;8.012;2022-12-29T08:21:10;94628.19;;;6.47;98.54
76374;BME280;65197;50.164;8.012;2022-12-29T08:23:35;94643.38;;;6.47;98.30
76374;BME280;65197;50.164;8.012;2022-12-29T08:26:05;94651.69;;;6.49;98.41
76374;BME280;65197;50.164;8.012;2022-12-29T08:28:31;94660.03;;;6.51;98.15
76374;BME280;65197;50.164;8.012;2022-12-29T08:30:57;94671.06;;;6.50;98.07
76374;BME280;65197;50.164;8.012;2022-12-29T08:33:23;94676.91;;;6.52;98.45
76374;BME280;65197;50.164;8.012;2022-12-29T08:35:49;94665.41;;;6.45;98.19
76374;BME280;65197;50.164;8.012;2022-12-29T08:38:14;94667.72;;;6.50;98.05
76374;BME280;65197;50.164;8.012;2022-12-29T08:40:39;94676.91;;;6.52;98.60
76374;BME280;65197;50.164;8.012;2022-12-29T08:43:05;94675.09;;;6.54;98.77
76374;BME280;65197;50.164;8.012;2022-12-29T08:45:31;94683.88;;;6.47;98.30
76374;BME280;65197;50.164;8.012;2022-12-29T08:47:56;94673.38;;;6.55;98.45
76374;BME280;65197;50.164;8.012;2022-12-29T08:50:22;94670.16;;;6.51;98.62
76374;BME280;65197;50.164;8.012;2022-12-29T08:52:47;94671.22;;;6.47;97.88
76374;BME280;65197;50.164;8.012;2022-12-29T08:55:13;94681.81;;;6.55;97.29
76374;BME280;65197;50.164;8.012;2022-12-29T08:57:38;94686.59;;;6.61;97.32
76374;BME280;65197;50.164;8.012;2022-12-29T09:00:04;94695.03;;;6.62;96.87
76374;BME280;65197;50.164;8.012;2022-12-29T09:02:30;94705.22;;;6.60;97.97
76374;BME280;65197;50.164;8.012;2022-12-29T09:04:55;94696.75;;;6.61;97.67
76374;BME280;65197;50.164;8.012;2022-12-29T09:07:22;94681.38;;;6.64;97.12
76374;BME280;65197;50.164;8.012;2022-12-29T09:09:48;94697.66;;;6.78;95.97
76374;BME280;65197;50.164;8.012;2022-12-29T09:12:13;94706.84;;;6.80;96.25
76374;BME280;65197;50.164;8.012;2022-12-29T09:14:39;94701.81;;;6.79;96.05
76374;BME280;65197;50.164;8.012;2022-12-29T09:17:04;94699.28;;;6.79;96.19
76374;BME280;65197;50.164;8.012;2022-12-29T09:19:48;94695.66;;;6.84;95.20
76374;BME280;65197;50.164;8.012;2022-12-29T09:22:13;94703.06;;;6.89;95.14
76374;BME280;65197;50.164;8.012;2022-12-29T09:24:39;94693.94;;;6.85;95.03
76374;BME280;65197;50.164;8.012;2022-12-29T09:27:04;94694.09;;;6.82;94.38
76374;BME280;65197;50.164;8.012;2022-12-29T09:29:29;94714.88;;;6.88;92.92
76374;BME280;65197;50.164;8.012;2022-12-29T09:31:55;94702.72;;;6.78;92.39
76374;BME280;65197;50.164;8.012;2022-12-29T09:34:20;94710.94;;;6.83;92.79
76374;BME280;65197;50.164;8.012;2022-12-29T09:36:48;94729.44;;;6.85;92.82
76374;BME280;65197;50.164;8.012;2022-12-29T09:39:13;94722.84;;;6.81;92.69
76374;BME280;65197;50.164;8.012;2022-12-29T09:41:45;94716.00;;;6.83;91.42
76374;BME280;65197;50.164;8.012;2022-12-29T09:46:49;94717.72;;;6.82;92.85
76374;BME280;65197;50.164;8.012;2022-12-29T09:49:23;94726.81;;;6.86;91.96
76374;BME280;65197;50.164;8.012;2022-12-29T09:51:59;94732.09;;;6.82;92.58
76374;BME280;65197;50.164;8.012;2022-12-29T09:57:32;94712.72;;;6.81;93.02
76374;BME280;65197;50.164;8.012;2022-12-29T10:00:06;94710.31;;;6.78;92.35
76374;BME280;65197;50.164;8.012;2022-12-29T10:02:39;94721.06;;;6.83;92.58
76374;BME280;65197;50.164;8.012;2022-12-29T10:05:35;94742.22;;;6.82;92.90
76374;BME280;65197;50.164;8.012;2022-12-29T10:14:11;94726.19;;;7.52;88.22
76374;BME280;65197;50.164;8.012;2022-12-29T10:16:54;94731.84;;;7.57;87.74
76374;BME280;65197;50.164;8.012;2022-12-29T10:19:46;94737.00;;;7.56;88.27
76374;BME280;65197;50.164;8.012;2022-12-29T10:25:00;94746.50;;;8.03;87.30
76374;BME280;65197;50.164;8.012;2022-12-29T10:27:30;94732.84;;;8.05;84.50
76374;BME280;65197;50.164;8.012;2022-12-29T10:29:58;94751.53;;;8.37;84.97
76374;BME280;65197;50.164;8.012;2022-12-29T10:32:32;94742.38;;;8.51;83.40
76374;BME280;65197;50.164;8.012;2022-12-29T10:35:05;94734.34;;;8.74;81.78
76374;BME280;65197;50.164;8.012;2022-12-29T10:37:59;94747.63;;;8.63;79.67
76374;BME280;65197;50.164;8.012;2022-12-29T10:40:32;94745.00;;;8.32;82.15
76374;BME280;65197;50.164;8.012;2022-12-29T10:43:11;94745.91;;;8.31;81.77
76374;BME280;65197;50.164;8.012;2022-12-29T10:45:39;94743.25;;;8.01;82.06
76374;BME280;65197;50.164;8.012;2022-12-29T10:48:13;94741.28;;;7.73;81.92
76374;BME280;65197;50.164;8.012;2022-12-29T10:50:44;94736.34;;;7.52;82.39
76374;BME280;65197;50.164;8.012;2022-12-29T10:53:18;94740.09;;;7.45;82.59
76374;BME280;65197;50.164;8.012;2022-12-29T10:55:44;94747.25;;;7.37;82.55
76374;BME280;65197;50.164;8.012;2022-12-29T10:58:13;94727.09;;;7.34;83.50
76374;BME280;65197;50.164;8.012;2022-12-29T11:00:40;94751.03;;;7.28;82.75
76374;BME280;65197;50.164;8.012;2022-12-29T11:06:12;94758.13;;;7.22;83.06
76374;BME280;65197;50.164;8.012;2022-12-29T11:08:44;94763.19;;;7.22;83.13
76374;BME280;65197;50.164;8.012;2022-12-29T11:11:22;94776.75;;;7.21;83.40
76374;BME280;65197;50.164;8.012;2022-12-29T11:13:50;94755.25;;;7.10;82.32
76374;BME280;65197;50.164;8.012;2022-12-29T11:16:31;94766.47;;;7.24;82.66
76374;BME280;65197;50.164;8.012;2022-12-29T11:18:59;94764.97;;;7.20;82.03
76374;BME280;65197;50.164;8.012;2022-12-29T11:21:26;94769.09;;;7.22;81.02
76374;BME280;65197;50.164;8.012;2022-12-29T11:26:23;94775.13;;;7.20;80.27
76374;BME280;65197;50.164;8.012;2022-12-29T11:29:12;94758.25;;;7.19;80.50
76374;BME280;65197;50.164;8.012;2022-12-29T11:31:47;94764.06;;;7.21;80.00
76374;BME280;65197;50.164;8.012;2022-12-29T11:34:22;94773.19;;;7.25;80.83
76374;BME280;65197;50.164;8.012;2022-12-29T11:36:50;94775.66;;;7.26;79.87
76374;BME280;65197;50.164;8.012;2022-12-29T11:41:53;94772.91;;;7.31;80.44
76374;BME280;65197;50.164;8.012;2022-12-29T11:44:19;94764.53;;;7.29;80.44
76374;BME280;65197;50.164;8.012;2022-12-29T11:46:48;94761.53;;;7.21;80.42
76374;BME280;65197;50.164;8.012;2022-12-29T11:49:21;94766.16;;;7.99;80.49
76374;BME280;65197;50.164;8.012;2022-12-29T11:51:49;94771.69;;;7.90;78.67
76374;BME280;65197;50.164;8.012;2022-12-29T11:54:19;94770.69;;;7.59;79.39
76374;BME280;65197;50.164;8.012;2022-12-29T11:56:46;94775.88;;;7.39;79.32
76374;BME280;65197;50.164;8.012;2022-12-29T12:01:58;94798.84;;;7.19;79.92
76374;BME280;65197;50.164;8.012;2022-12-29T12:04:34;94800.47;;;7.20;79.91
76374;BME280;65197;50.164;8.012;2022-12-29T12:09:37;94789.28;;;7.24;80.90
76374;BME280;65197;50.164;8.012;2022-12-29T12:12:09;94789.88;;;7.29;81.17
76374;BME280;65197;50.164;8.012;2022-12-29T12:15:01;94786.31;;;7.33;80.49
76374;BME280;65197;50.164;8.012;2022-12-29T12:17:32;94779.47;;;7.35;79.55
76374;BME280;65197;50.164;8.012;2022-12-29T12:20:22;94774.53;;;7.32;80.12
76374;BME280;65197;50.164;8.012;2022-12-29T12:22:59;94771.09;;;7.33;80.41
76374;BME280;65197;50.164;8.012;2022-12-29T12:25:37;94773.78;;;7.47;80.26
76374;BME280;65197;50.164;8.012;2022-12-29T12:28:30;94785.31;;;7.54;79.41
76374;BME280;65197;50.164;8.012;2022-12-29T12:31:01;94767.78;;;7.50;77.72
76374;BME280;65197;50.164;8.012;2022-12-29T12:33:35;94762.00;;;7.46;78.81
76374;BME280;65197;50.164;8.012;2022-12-29T12:44:02;94771.72;;;7.55;79.12
76374;BME280;65197;50.164;8.012;2022-12-29T12:49:23;94786.81;;;7.58;78.87
76374;BME280;65197;50.164;8.012;2022-12-29T12:52:19;94771.72;;;7.55;78.41
76374;BME280;65197;50.164;8.012;2022-12-29T13:00:17;94760.34;;;7.62;78.21
76374;BME280;65197;50.164;8.012;2022-12-29T13:03:10;94754.41;;;7.63;78.99
76374;BME280;65197;50.164;8.012;2022-12-29T13:09:20;94751.41;;;7.55;80.60
76374;BME280;65197;50.164;8.012;2022-12-29T13:20:20;94770.34;;;7.48;80.74
76374;BME280;65197;50.164;8.012;2022-12-29T13:22:59;94756.25;;;7.43;81.21
76374;BME280;65197;50.164;8.012;2022-12-29T13:25:37;94769.78;;;7.60;80.61
76374;BME280;65197;50.164;8.012;2022-12-29T13:31:08;94776.78;;;7.55;80.56
76374;BME280;65197;50.164;8.012;2022-12-29T13:36:10;94773.66;;;7.50;81.56
76374;BME280;65197;50.164;8.012;2022-12-29T13:38:51;94778.13;;;7.62;80.64
76374;BME280;65197;50.164;8.012;2022-12-29T13:41:25;94785.59;;;7.65;81.62
76374;BME280;65197;50.164;8.012;2022-12-29T13:43:54;94789.84;;;7.65;80.90
76374;BME280;65197;50.164;8.012;2022-12-29T13:46:27;94784.84;;;7.63;80.59
76374;BME280;65197;50.164;8.012;2022-12-29T13:49:06;94773.50;;;7.53;82.40
76374;BME280;65197;50.164;8.012;2022-12-29T13:51:34;94778.19;;;7.44;81.29
76374;BME280;65197;50.164;8.012;2022-12-29T13:54:11;94787.53;;;7.43;81.62
76374;BME280;65197;50.164;8.012;2022-12-29T13:56:54;94792.59;;;7.43;82.05
76374;BME280;65197;50.164;8.012;2022-12-29T13:59:33;94782.75;;;7.37;82.00
76374;BME280;65197;50.164;8.012;2022-12-29T14:02:33;94796.16;;;7.39;81.86
76374;BME280;65197;50.164;8.012;2022-12-29T14:05:26;94804.91;;;7.33;81.20
76374;BME280;65197;50.164;8.012;2022-12-29T14:08:00;94793.03;;;7.34;82.51
76374;BME280;65197;50.164;8.012;2022-12-29T14:10:34;94793.47;;;7.25;81.98
76374;BME280;65197;50.164;8.012;2022-12-29T14:15:32;94805.41;;;7.23;82.95
76374;BME280;65197;50.164;8.012;2022-12-29T14:18:09;94813.53;;;7.29;82.63
76374;BME280;65197;50.164;8.012;2022-12-29T14:20:36;94818.56;;;7.31;83.01
76374;BME280;65197;50.164;8.012;2022-12-29T14:28:28;94826.75;;;7.36;82.74
76374;BME280;65197;50.164;8.012;2022-12-29T14:30:57;94825.41;;;7.29;83.10
76374;BME280;65197;50.164;8.012;2022-12-29T14:33:25;94819.13;;;7.19;80.29
76374;BME280;65197;50.164;8.012;2022-12-29T14:35:52;94820.41;;;7.27;77.08
76374;BME280;65197;50.164;8.012;2022-12-29T14:38:19;94830.75;;;7.23;76.83
76374;BME280;65197;50.164;8.012;2022-12-29T14:40:46;94819.13;;;7.19;76.79
76374;BME280;65197;50.164;8.012;2022-12-29T14:43:23;94810.13;;;7.11;75.21
76374;BME280;65197;50.164;8.012;2022-12-29T14:45:54;94796.19;;;7.03;74.30
76374;BME280;65197;50.164;8.012;2022-12-29T14:48:41;94804.88;;;6.97;74.68
76374;BME280;65197;50.164;8.012;2022-12-29T14:51:29;94805.25;;;6.89;73.89
76374;BME280;65197;50.164;8.012;2022-12-29T14:53:55;94801.94;;;6.87;74.38
76374;BME280;65197;50.164;8.012;2022-12-29T14:56:26;94817.22;;;6.86;74.69